Shirley, United Kingdom
Current Conditions -  °F | °C
As of 5:20 PM on Monday 22 Dec 2014 (Local Time) from EGBB Reporting Station
Broken Clouds Broken Clouds  
Wind Chill: 54°   Ceiling: 2500
Heat Index: 54°   Visibility: 6mi
Dew Point: 45°   Wind: 14mph
Humidity: 72%   Direction: 230°SW
Pressure: 29.91"   Gusts: NA
Location:  52.41°N, 1.83°W
Report Text: EGBB 221720Z 23012KT 200V270 9999 BKN025 12/07 Q1013
Loading
Personal Weather Stations






























Interactive Weather Map New forecast layout! Learn more

10-Day Weather Forecast

Advertisements
Track Severe Weather on mobile